createdAt,value
2018-02-08T00:00:21.740Z,54.63
2018-02-08T00:02:50.283Z,59.27
2018-02-08T00:05:19.113Z,53.70
2018-02-08T00:07:47.668Z,52.20
2018-02-08T00:10:16.225Z,55.93
2018-02-08T00:12:45.884Z,50.67
2018-02-08T00:15:14.436Z,49.87
2018-02-08T00:17:43.025Z,54.57
2018-02-08T00:20:12.392Z,53.43
2018-02-08T00:22:46.628Z,51.07
2018-02-08T00:25:15.455Z,61.93
2018-02-08T00:27:43.995Z,107.50
2018-02-08T00:30:13.315Z,104.60
2018-02-08T00:32:42.052Z,87.87
2018-02-08T00:35:10.599Z,78.03
2018-02-08T00:37:39.144Z,54.37
2018-02-08T00:40:08.788Z,51.20
2018-02-08T00:42:37.335Z,48.60
2018-02-08T00:45:06.645Z,50.17
2018-02-08T00:47:35.472Z,49.90
2018-02-08T00:50:04.034Z,49.10
2018-02-08T00:52:32.573Z,45.97
2018-02-08T00:55:01.172Z,47.10
2018-02-08T00:57:30.484Z,47.97
2018-02-08T00:59:59.796Z,48.60
2018-02-08T01:02:28.402Z,49.70
2018-02-08T01:04:56.949Z,47.37
2018-02-08T01:07:25.684Z,51.83
2018-02-08T01:09:54.564Z,50.97
2018-02-08T01:12:23.261Z,56.57
2018-02-08T01:14:51.839Z,53.33
2018-02-08T01:17:20.839Z,52.30
2018-02-08T01:19:49.516Z,55.00
2018-02-08T01:22:18.166Z,54.97
2018-02-08T01:24:47.256Z,51.40
2018-02-08T01:27:16.704Z,46.53
2018-02-08T01:29:45.344Z,58.20
2018-02-08T01:32:14.998Z,51.30
2018-02-08T01:34:43.684Z,59.27
2018-02-08T01:37:12.322Z,55.90
2018-02-08T01:39:42.799Z,50.93
2018-02-08T01:42:11.375Z,47.67
2018-02-08T01:44:40.061Z,50.83
2018-02-08T01:47:09.263Z,39.47
2018-02-08T01:49:46.860Z,36.60
2018-02-08T01:52:15.739Z,49.20
2018-02-08T01:54:45.964Z,44.47
2018-02-08T01:57:14.508Z,36.30
2018-02-08T01:59:43.197Z,38.63
2018-02-08T02:02:11.744Z,31.10
2018-02-08T02:04:40.298Z,35.90
2018-02-08T02:07:09.658Z,25.30
2018-02-08T02:09:38.963Z,23.83
2018-02-08T02:12:08.267Z,25.93
2018-02-08T02:14:37.760Z,24.13
2018-02-08T02:17:07.072Z,21.87
2018-02-08T02:19:35.639Z,22.53
2018-02-08T02:22:05.001Z,25.37
2018-02-08T02:24:33.549Z,22.93
2018-02-08T02:27:02.088Z,21.93
2018-02-08T02:29:30.802Z,20.50
2018-02-08T02:31:59.365Z,21.57
2018-02-08T02:34:28.675Z,21.10
2018-02-08T02:36:58.324Z,20.30
2018-02-08T02:39:26.933Z,20.73
2018-02-08T02:41:55.479Z,19.43
2018-02-08T02:44:24.080Z,17.93
2018-02-08T02:46:52.627Z,16.03
2018-02-08T02:49:21.944Z,15.07
2018-02-08T02:51:50.530Z,14.87
2018-02-08T02:54:19.108Z,14.67
2018-02-08T02:56:47.652Z,14.27
2018-02-08T02:59:16.503Z,14.10
2018-02-08T03:01:45.044Z,15.33
2018-02-08T03:04:14.352Z,17.60
2018-02-08T03:06:43.971Z,17.77
2018-02-08T03:09:12.511Z,17.47
2018-02-08T03:11:41.066Z,19.17
2018-02-08T03:14:09.844Z,21.33
2018-02-08T03:16:38.388Z,19.50
2018-02-08T03:19:07.696Z,19.20
2018-02-08T03:21:37.052Z,19.37
2018-02-08T03:24:05.596Z,18.77
2018-02-08T03:26:34.139Z,21.10
2018-02-08T03:29:03.563Z,24.77
2018-02-08T03:31:32.130Z,27.70
2018-02-08T03:34:01.423Z,23.87
2018-02-08T03:36:30.159Z,22.13
2018-02-08T03:38:58.704Z,26.10
2018-02-08T03:41:28.012Z,24.97
2018-02-08T03:43:57.479Z,27.57
2018-02-08T03:46:26.024Z,28.00
2018-02-08T03:48:54.592Z,30.63
2018-02-08T03:51:23.418Z,38.30
2018-02-08T03:53:51.956Z,29.93
2018-02-08T03:56:20.500Z,27.77
2018-02-08T03:58:49.092Z,28.93
2018-02-08T04:01:17.640Z,31.20
2018-02-08T04:03:46.179Z,26.73
2018-02-08T04:06:15.534Z,24.07
2018-02-08T04:08:44.076Z,28.63
2018-02-08T04:11:12.621Z,26.87
2018-02-08T04:13:41.203Z,24.60
2018-02-08T04:16:09.740Z,32.03
2018-02-08T04:18:38.292Z,28.93
2018-02-08T04:21:07.760Z,32.23
2018-02-08T04:23:36.299Z,36.17
2018-02-08T04:26:04.839Z,30.53
2018-02-08T04:28:33.580Z,26.37
2018-02-08T04:31:02.128Z,26.83
2018-02-08T04:33:31.432Z,27.77
2018-02-08T04:36:00.897Z,22.77
2018-02-08T04:38:47.341Z,21.13
2018-02-08T04:41:34.612Z,19.33
2018-02-08T04:44:23.744Z,21.87
2018-02-08T04:50:08.240Z,17.93
2018-02-08T04:52:37.152Z,21.83
2018-02-08T04:55:05.698Z,19.93
2018-02-08T04:57:34.239Z,22.40
2018-02-08T05:00:03.048Z,17.17
2018-02-08T05:02:32.379Z,19.53
2018-02-08T05:05:00.928Z,18.60
2018-02-08T05:07:30.428Z,21.67
2018-02-08T05:09:59.747Z,21.10
2018-02-08T05:12:28.286Z,18.17
2018-02-08T05:14:56.984Z,17.03
2018-02-08T05:17:25.533Z,17.27
2018-02-08T05:19:54.081Z,17.07
2018-02-08T05:22:23.549Z,17.60
2018-02-08T05:24:52.091Z,14.67
2018-02-08T05:27:20.690Z,14.00
2018-02-08T05:29:49.684Z,16.90
2018-02-08T05:32:18.224Z,20.40
2018-02-08T05:34:47.532Z,18.63
2018-02-08T05:37:16.356Z,15.27
2018-02-08T05:39:44.903Z,15.90
2018-02-08T05:42:13.448Z,15.57
2018-02-08T05:44:42.144Z,16.67
2018-02-08T05:47:10.688Z,16.57
2018-02-08T05:49:39.248Z,16.07
2018-02-08T05:52:07.835Z,15.77
2018-02-08T05:54:36.412Z,15.80
2018-02-08T05:57:04.967Z,19.80
2018-02-08T05:59:33.750Z,22.00
2018-02-08T06:02:02.300Z,24.53
2018-02-08T06:04:30.850Z,22.40
2018-02-08T06:06:59.545Z,23.50
2018-02-08T06:09:28.088Z,22.57
2018-02-08T06:11:57.156Z,19.00
2018-02-08T06:14:26.948Z,24.00
2018-02-08T06:16:55.496Z,19.10
2018-02-08T06:19:24.044Z,18.87
2018-02-08T06:21:53.407Z,27.93
2018-02-08T06:24:21.961Z,27.57
2018-02-08T06:26:50.535Z,22.57
2018-02-08T06:29:19.137Z,20.30
2018-02-08T06:31:47.759Z,20.83
2018-02-08T06:34:17.079Z,22.10
2018-02-08T06:36:46.535Z,23.47
2018-02-08T06:39:15.085Z,20.43
2018-02-08T06:41:43.636Z,22.17
2018-02-08T06:44:13.160Z,19.47
2018-02-08T06:46:42.476Z,20.70
2018-02-08T06:49:11.031Z,17.60
2018-02-08T06:51:40.387Z,17.40
2018-02-08T06:54:08.937Z,19.57
2018-02-08T06:56:37.483Z,17.47
2018-02-08T06:59:07.983Z,17.67
2018-02-08T07:01:36.533Z,15.13
2018-02-08T07:04:05.080Z,14.27
2018-02-08T07:06:34.556Z,13.20
2018-02-08T07:09:05.174Z,17.07
2018-02-08T07:11:33.720Z,16.90
2018-02-08T07:14:03.253Z,14.47
2018-02-08T07:16:31.804Z,14.53
2018-02-08T07:19:01.116Z,13.00
2018-02-08T07:21:30.041Z,16.67
2018-02-08T07:23:58.587Z,12.50
2018-02-08T07:26:27.122Z,15.33
2018-02-08T07:28:56.008Z,10.67
2018-02-08T07:31:24.556Z,11.27
2018-02-08T07:33:53.109Z,11.40
2018-02-08T07:36:22.471Z,12.20
2018-02-08T07:38:51.022Z,10.03
2018-02-08T07:41:19.575Z,10.27
2018-02-08T07:43:49.048Z,11.07
2018-02-08T07:46:17.600Z,11.07
2018-02-08T07:48:46.148Z,9.70
2018-02-08T07:51:15.909Z,10.47
2018-02-08T07:53:44.456Z,11.43
2018-02-08T07:56:13.006Z,9.23
2018-02-08T07:58:45.735Z,8.63
2018-02-08T08:01:14.280Z,8.50
2018-02-08T08:03:43.608Z,9.27
2018-02-08T08:06:12.329Z,10.07
2018-02-08T08:08:40.884Z,9.70
2018-02-08T08:11:09.437Z,10.60
2018-02-08T08:13:38.905Z,9.87
2018-02-08T08:16:07.880Z,7.57
2018-02-08T08:18:36.436Z,6.60
2018-02-08T08:21:05.161Z,7.57
2018-02-08T08:23:33.717Z,10.63
2018-02-08T08:26:02.272Z,11.03
2018-02-08T08:28:31.676Z,10.50
2018-02-08T08:31:01.032Z,11.43
2018-02-08T08:33:29.576Z,6.77
2018-02-08T08:35:58.509Z,7.10
2018-02-08T08:38:27.065Z,6.77
2018-02-08T08:40:55.612Z,6.07
2018-02-08T08:43:24.977Z,7.80
2018-02-08T08:45:53.533Z,7.33
2018-02-08T08:48:22.076Z,6.20
2018-02-08T08:50:51.649Z,7.20
2018-02-08T08:53:20.205Z,5.47
2018-02-08T08:55:48.760Z,4.83
2018-02-08T08:58:18.418Z,6.27
2018-02-08T09:00:46.979Z,6.30
2018-02-08T09:03:15.531Z,5.23
2018-02-08T09:05:44.173Z,5.07
2018-02-08T09:08:12.729Z,5.73
2018-02-08T09:10:41.286Z,7.00
2018-02-08T09:13:10.137Z,5.90
2018-02-08T09:15:38.704Z,5.90
2018-02-08T09:18:07.252Z,6.23
2018-02-08T09:20:35.848Z,6.43
2018-02-08T09:23:04.405Z,6.60
2018-02-08T09:25:33.726Z,5.90
2018-02-08T09:28:02.648Z,5.17
2018-02-08T09:30:31.209Z,5.20
2018-02-08T09:32:59.764Z,4.90
2018-02-08T09:35:28.701Z,4.87
2018-02-08T09:37:57.250Z,4.27
2018-02-08T09:40:25.803Z,4.90
2018-02-08T09:42:55.280Z,5.20
2018-02-08T09:45:23.836Z,5.20
2018-02-08T09:47:52.393Z,4.57
2018-02-08T09:50:21.946Z,7.13
2018-02-08T09:52:50.504Z,4.50
2018-02-08T09:55:19.060Z,5.30
2018-02-08T09:57:48.432Z,4.93
2018-02-08T10:00:16.993Z,4.97
2018-02-08T10:02:45.550Z,4.53
2018-02-08T10:05:14.473Z,5.87
2018-02-08T10:07:43.784Z,5.70
2018-02-08T10:10:12.336Z,5.83
2018-02-08T10:12:41.243Z,9.47
2018-02-08T10:15:09.793Z,5.50
2018-02-08T10:17:39.132Z,5.27
2018-02-08T10:20:08.129Z,4.87
2018-02-08T10:22:36.785Z,4.87
2018-02-08T10:25:05.335Z,7.47
2018-02-08T10:27:34.748Z,4.30
2018-02-08T10:30:04.101Z,4.93
2018-02-08T10:32:32.651Z,4.60
2018-02-08T10:35:01.263Z,31.20
2018-02-08T10:37:29.850Z,7.77
2018-02-08T10:39:58.403Z,4.63
2018-02-08T10:42:27.290Z,4.30
2018-02-08T10:44:55.843Z,4.73
2018-02-08T10:47:25.166Z,12.63
2018-02-08T10:49:53.997Z,5.20
2018-02-08T10:52:22.551Z,4.53
2018-02-08T10:54:51.157Z,12.77
2018-02-08T10:57:19.951Z,4.50
2018-02-08T10:59:48.505Z,6.23
2018-02-08T11:02:17.064Z,29.43
2018-02-08T11:04:45.815Z,12.53
2018-02-08T11:07:14.373Z,7.73
2018-02-08T11:09:42.928Z,8.30
2018-02-08T11:12:11.536Z,9.57
2018-02-08T11:14:40.083Z,8.20
2018-02-08T11:17:09.401Z,5.93
2018-02-08T11:19:38.023Z,11.43
2018-02-08T11:22:06.583Z,12.83
2018-02-08T11:24:35.136Z,16.00
2018-02-08T11:27:04.694Z,15.37
2018-02-08T11:29:33.244Z,5.23
2018-02-08T11:32:01.800Z,6.00
2018-02-08T11:34:31.168Z,5.13
2018-02-08T11:36:59.703Z,7.40
2018-02-08T11:39:28.300Z,6.93
2018-02-08T11:41:57.009Z,5.20
2018-02-08T11:44:25.561Z,4.97
2018-02-08T11:46:54.112Z,4.10
2018-02-08T11:49:23.681Z,4.17
2018-02-08T11:51:52.243Z,4.17
2018-02-08T11:54:20.836Z,21.77
2018-02-08T11:56:50.304Z,16.27
2018-02-08T11:59:18.841Z,6.80
2018-02-08T12:01:47.403Z,5.60
2018-02-08T12:04:16.209Z,4.90
2018-02-08T12:06:44.760Z,5.20
2018-02-08T12:09:13.401Z,5.43
2018-02-08T12:11:42.775Z,5.13
2018-02-08T12:14:12.108Z,4.60
2018-02-08T12:16:40.673Z,4.37
2018-02-08T12:19:10.042Z,4.13
2018-02-08T12:21:38.609Z,5.50
2018-02-08T12:24:07.160Z,4.97
2018-02-08T12:26:36.725Z,4.67
2018-02-08T12:29:05.293Z,4.23
2018-02-08T12:31:33.857Z,5.43
2018-02-08T12:34:02.469Z,4.10
2018-02-08T12:36:31.031Z,3.53
2018-02-08T12:39:00.396Z,7.43
2018-02-08T12:41:29.872Z,4.23
2018-02-08T12:43:58.429Z,3.30
2018-02-08T12:46:26.988Z,3.77
2018-02-08T12:48:55.704Z,4.10
2018-02-08T12:51:24.273Z,3.77
2018-02-08T12:53:53.626Z,3.73
2018-02-08T12:56:22.412Z,3.43
2018-02-08T12:58:50.984Z,3.87
2018-02-08T13:01:20.308Z,3.93
2018-02-08T13:03:48.915Z,6.40
2018-02-08T13:06:17.479Z,3.47
2018-02-08T13:08:46.033Z,3.87
2018-02-08T13:11:15.405Z,4.03
2018-02-08T13:13:43.964Z,3.07
2018-02-08T13:16:12.524Z,4.00
2018-02-08T13:18:42.012Z,4.20
2018-02-08T13:21:12.081Z,4.10
2018-02-08T13:23:40.665Z,4.40
2018-02-08T13:26:09.581Z,5.00
2018-02-08T13:28:38.140Z,4.80
2018-02-08T13:31:06.732Z,5.50
2018-02-08T13:33:35.380Z,5.67
2018-02-08T13:36:03.986Z,6.13
2018-02-08T13:38:32.540Z,6.03
2018-02-08T13:41:01.280Z,6.53
2018-02-08T13:43:29.840Z,5.97
2018-02-08T13:45:58.468Z,6.40
2018-02-08T13:48:27.927Z,6.73
2018-02-08T13:51:01.629Z,6.63
2018-02-08T13:56:36.808Z,6.13
2018-02-08T13:59:11.269Z,6.77
2018-02-08T14:01:43.223Z,6.93
2018-02-08T14:04:11.864Z,7.07
2018-02-08T14:06:40.445Z,7.43
2018-02-08T14:09:09.004Z,6.80
2018-02-08T14:11:37.624Z,6.83
2018-02-08T14:14:06.954Z,6.87
2018-02-08T14:16:35.519Z,6.50
2018-02-08T14:19:04.282Z,7.57
2018-02-08T14:21:32.845Z,7.57
2018-02-08T14:24:02.168Z,6.50
2018-02-08T14:26:31.104Z,7.07
2018-02-08T14:28:59.669Z,8.30
2018-02-08T14:31:28.236Z,9.13
2018-02-08T14:33:57.028Z,8.17
2018-02-08T14:36:26.348Z,7.97
2018-02-08T14:38:54.904Z,7.80
2018-02-08T14:41:23.607Z,8.10
2018-02-08T14:43:52.177Z,8.63
2018-02-08T14:46:20.749Z,10.17
2018-02-08T14:48:49.466Z,8.40
2018-02-08T14:51:18.028Z,7.53
2018-02-08T14:53:46.584Z,7.50
2018-02-08T14:56:15.375Z,7.57
2018-02-08T14:58:43.944Z,6.93
2018-02-08T15:01:13.264Z,10.13
2018-02-08T15:03:41.970Z,8.17
2018-02-08T15:06:11.300Z,8.37
2018-02-08T15:08:39.848Z,8.80
2018-02-08T15:11:09.320Z,9.83
2018-02-08T15:13:38.648Z,8.37
2018-02-08T15:16:07.196Z,10.47
2018-02-08T15:18:36.592Z,9.73
2018-02-08T15:21:05.929Z,10.57
2018-02-08T15:23:34.476Z,9.13
2018-02-08T15:26:03.111Z,8.67
2018-02-08T15:28:31.683Z,8.20
2018-02-08T15:31:00.240Z,7.57
2018-02-08T15:33:28.852Z,8.47
2018-02-08T15:35:57.423Z,7.43
2018-02-08T15:38:25.975Z,8.27
2018-02-08T15:40:54.836Z,7.40
2018-02-08T15:43:23.389Z,7.50
2018-02-08T15:45:51.972Z,8.43
2018-02-08T15:48:20.854Z,10.40
2018-02-08T15:50:49.417Z,7.23
2018-02-08T15:53:17.976Z,6.50
2018-02-08T15:55:46.592Z,21.40
2018-02-08T15:58:15.164Z,47.40
2018-02-08T16:00:43.748Z,16.13
2018-02-08T16:03:13.228Z,21.10
2018-02-08T16:05:42.568Z,20.43
2018-02-08T16:08:11.124Z,16.17
2018-02-08T16:10:39.880Z,22.53
2018-02-08T16:13:08.500Z,26.10
2018-02-08T16:15:37.817Z,26.57
2018-02-08T16:18:06.536Z,64.70
2018-02-08T16:20:35.108Z,37.97
2018-02-08T16:23:04.433Z,35.03
2018-02-08T16:25:33.163Z,63.77
2018-02-08T16:28:01.722Z,54.37
2018-02-08T16:30:30.284Z,53.33
2018-02-08T16:32:59.666Z,53.50
2018-02-08T16:35:29.020Z,60.50
2018-02-08T16:37:57.649Z,108.10
2018-02-08T16:40:26.493Z,237.03
2018-02-08T16:42:55.066Z,202.57
2018-02-08T16:45:23.634Z,212.50
2018-02-08T16:47:52.360Z,154.93
2018-02-08T16:50:22.457Z,125.83
2018-02-08T16:52:51.088Z,107.83
2018-02-08T16:55:19.809Z,102.23
2018-02-08T16:57:48.400Z,104.40
2018-02-08T17:00:17.031Z,97.97
2018-02-08T17:02:45.780Z,98.77
2018-02-08T17:05:14.351Z,113.97
2018-02-08T17:07:42.924Z,119.97
2018-02-08T17:10:12.489Z,125.90
2018-02-08T17:12:41.099Z,158.27
2018-02-08T17:15:09.667Z,166.53
2018-02-08T17:17:38.386Z,148.43
2018-02-08T17:20:06.962Z,154.80
2018-02-08T17:22:36.430Z,150.03
2018-02-08T17:25:05.483Z,120.57
2018-02-08T17:27:34.961Z,122.17
2018-02-08T17:30:04.378Z,126.87
2018-02-08T17:32:33.406Z,116.33
2018-02-08T17:35:01.996Z,133.27
2018-02-08T17:37:31.383Z,179.30
2018-02-08T17:40:00.016Z,122.40
2018-02-08T17:42:28.580Z,151.50
2018-02-08T17:44:57.912Z,191.70
2018-02-08T17:47:26.533Z,141.73
2018-02-08T17:49:55.382Z,142.73
2018-02-08T17:52:23.975Z,143.30
2018-02-08T17:54:57.721Z,169.17
2018-02-08T17:57:26.283Z,178.20
2018-02-08T17:59:54.892Z,184.47
2018-02-08T18:02:23.501Z,205.87
2018-02-08T18:04:52.841Z,191.23
2018-02-08T18:07:21.548Z,188.63
2018-02-08T18:09:50.120Z,203.47
2018-02-08T18:12:18.695Z,207.20
2018-02-08T18:14:47.308Z,200.87
2018-02-08T18:17:16.648Z,210.90
2018-02-08T18:19:45.214Z,179.83
2018-02-08T18:22:13.946Z,166.43
2018-02-08T18:24:42.531Z,143.73
2018-02-08T18:27:11.084Z,140.70
2018-02-08T18:29:39.775Z,140.70
2018-02-08T18:32:08.391Z,146.00
2018-02-08T18:34:36.952Z,148.47
2018-02-08T18:37:05.852Z,147.33
2018-02-08T18:39:34.408Z,135.97
2018-02-08T18:42:02.977Z,142.67
2018-02-08T18:44:32.029Z,140.27
2018-02-08T18:47:01.351Z,154.83
2018-02-08T18:49:30.929Z,155.03
2018-02-08T18:51:59.638Z,187.97
2018-02-08T18:54:29.249Z,159.73
2018-02-08T18:56:58.648Z,59.90
2018-02-08T18:59:28.239Z,44.20
2018-02-08T19:01:56.807Z,41.63
2018-02-08T19:04:25.373Z,40.20
2018-02-08T19:06:54.124Z,38.17
2018-02-08T19:09:23.450Z,60.07
2018-02-08T19:11:52.934Z,69.77
2018-02-08T19:14:21.771Z,70.80
2018-02-08T19:16:50.356Z,117.50
2018-02-08T19:19:18.929Z,165.73
2018-02-08T19:21:47.595Z,146.43
2018-02-08T19:24:16.153Z,115.93
2018-02-08T19:26:44.713Z,57.83
2018-02-08T19:29:14.277Z,57.73
2018-02-08T19:31:43.608Z,57.10
2018-02-08T19:34:12.168Z,50.80
2018-02-08T19:36:41.723Z,51.30
2018-02-08T19:39:10.651Z,59.37
2018-02-08T19:41:39.980Z,50.73
2018-02-08T19:44:08.600Z,48.47
2018-02-08T19:46:37.925Z,54.67
2018-02-08T19:49:06.609Z,53.53
2018-02-08T19:51:35.487Z,58.73
2018-02-08T19:54:04.049Z,55.53
2018-02-08T19:56:32.634Z,49.23
2018-02-08T19:59:01.246Z,41.33
2018-02-08T20:01:29.814Z,43.13
2018-02-08T20:03:58.374Z,37.77
2018-02-08T20:06:27.121Z,34.37
2018-02-08T20:08:56.513Z,29.70
2018-02-08T20:11:25.079Z,22.70
2018-02-08T20:13:54.062Z,24.47
2018-02-08T20:16:22.692Z,68.57
2018-02-08T20:18:52.008Z,32.87
2018-02-08T20:21:20.901Z,41.73
2018-02-08T20:23:50.236Z,26.30
2018-02-08T20:26:18.789Z,27.47
2018-02-08T20:28:47.400Z,25.97
2018-02-08T20:31:15.988Z,26.10
2018-02-08T20:33:44.568Z,23.70
2018-02-08T20:36:13.569Z,57.00
2018-02-08T20:38:42.137Z,37.37
2018-02-08T20:41:10.719Z,152.00
2018-02-08T20:43:39.497Z,46.63
2018-02-08T20:46:08.057Z,57.10
2018-02-08T20:48:36.637Z,51.10
2018-02-08T20:51:06.150Z,17.27
2018-02-08T20:53:34.708Z,23.47
2018-02-08T20:56:04.037Z,30.53
2018-02-08T20:58:32.857Z,35.67
2018-02-08T21:01:01.417Z,31.53
2018-02-08T21:03:29.974Z,26.57
2018-02-08T21:05:59.370Z,32.83
2018-02-08T21:08:28.685Z,41.60
2018-02-08T21:10:58.004Z,46.27
2018-02-08T21:13:26.659Z,44.07
2018-02-08T21:15:55.984Z,51.30
2018-02-08T21:18:24.540Z,60.93
2018-02-08T21:20:54.318Z,75.27
2018-02-08T21:23:22.877Z,51.50
2018-02-08T21:25:51.442Z,63.93
2018-02-08T21:28:20.061Z,69.43
2018-02-08T21:30:48.608Z,64.63
2018-02-08T21:33:17.170Z,63.97
2018-02-08T21:35:46.537Z,65.97
2018-02-08T21:38:15.100Z,71.87
2018-02-08T21:40:43.670Z,69.07
2018-02-08T21:43:12.583Z,70.53
2018-02-08T21:45:41.140Z,69.37
2018-02-08T21:48:09.711Z,66.83
2018-02-08T21:50:39.111Z,83.73
2018-02-08T21:53:07.669Z,75.37
2018-02-08T21:55:36.226Z,89.23
2018-02-08T21:58:04.930Z,97.27
2018-02-08T22:00:33.496Z,109.33
2018-02-08T22:03:02.073Z,110.40
2018-02-08T22:05:30.865Z,113.00
2018-02-08T22:07:59.425Z,107.90
2018-02-08T22:10:27.985Z,107.37
2018-02-08T22:12:56.742Z,97.80
2018-02-08T22:15:25.303Z,101.23
2018-02-08T22:17:53.869Z,100.43
2018-02-08T22:20:22.572Z,98.90
2018-02-08T22:22:51.131Z,99.90
2018-02-08T22:25:19.689Z,101.13
2018-02-08T22:27:49.444Z,94.50
2018-02-08T22:30:18.012Z,95.50
2018-02-08T22:32:46.576Z,103.60
2018-02-08T22:35:15.202Z,91.20
2018-02-08T22:37:43.776Z,89.33
2018-02-08T22:40:12.337Z,98.20
2018-02-08T22:42:41.080Z,105.37
2018-02-08T22:45:09.665Z,98.50
2018-02-08T22:47:38.996Z,82.10
2018-02-08T22:50:07.827Z,90.03
2018-02-08T22:52:36.800Z,87.80
2018-02-08T22:55:05.346Z,95.33
2018-02-08T22:57:34.819Z,87.03
2018-02-08T23:00:03.440Z,84.57
2018-02-08T23:02:32.755Z,91.73
2018-02-08T23:05:01.569Z,87.67
2018-02-08T23:07:30.130Z,80.67
2018-02-08T23:09:58.698Z,72.60
2018-02-08T23:12:27.309Z,66.50
2018-02-08T23:14:55.936Z,73.23
2018-02-08T23:17:24.515Z,64.60
2018-02-08T23:19:55.017Z,56.07
2018-02-08T23:22:23.568Z,55.83
2018-02-08T23:24:52.132Z,60.63
2018-02-08T23:27:21.504Z,61.27
2018-02-08T23:29:50.071Z,61.87
2018-02-08T23:32:18.713Z,59.10
2018-02-08T23:34:47.540Z,62.50
2018-02-08T23:37:16.091Z,61.40
2018-02-08T23:39:44.653Z,61.03
2018-02-08T23:42:14.020Z,62.57
2018-02-08T23:44:42.616Z,57.60
2018-02-08T23:47:12.684Z,53.30
2018-02-08T23:49:41.424Z,54.30
2018-02-08T23:52:09.984Z,52.80
2018-02-08T23:54:38.580Z,46.17
2018-02-08T23:57:07.282Z,43.23
2018-02-08T23:59:35.832Z,43.80
